Time;durP1;ratioP1;P1;durP2;ratioP2;P2;SDS_P1;SDS_P2;PMS_P1;PMS_P2;Temp;Humidity;BMP_temperature;BMP_pressure;BME280_temperature;BME280_humidity;BME280_pressure;Samples;Min_cycle;Max_cycle;Signal;HPM_P1;HPM_P2
2023/11/07 00:03:18;;;;;;;2.63;2.53;;;9.90;99.90;;;;;;10440563;28;20671;-79
2023/11/07 00:08:21;;;;;;;2.53;2.30;;;9.90;99.90;;;;;;10441914;28;20217;-79
2023/11/07 00:13:24;;;;;;;2.73;2.63;;;9.90;99.90;;;;;;10444295;28;20193;-79
2023/11/07 00:18:26;;;;;;;2.70;2.50;;;9.90;99.90;;;;;;10448094;28;20225;-78
2023/11/07 00:23:30;;;;;;;2.50;2.40;;;9.90;99.90;;;;;;10444832;28;20235;-79
2023/11/07 00:28:32;;;;;;;2.33;2.23;;;9.80;99.90;;;;;;10447054;28;20590;-79
2023/11/07 00:33:34;;;;;;;2.30;2.20;;;9.80;99.90;;;;;;10449553;28;20201;-79
2023/11/07 00:38:38;;;;;;;2.30;2.10;;;9.70;99.90;;;;;;10449810;28;20225;-79
2023/11/07 00:43:41;;;;;;;2.10;2.00;;;9.70;99.90;;;;;;10449174;28;20201;-79
2023/11/07 00:48:43;;;;;;;2.00;1.90;;;9.70;99.90;;;;;;10451393;28;20217;-79
2023/11/07 00:53:47;;;;;;;2.40;2.20;;;9.70;99.90;;;;;;10448496;28;20216;-79
2023/11/07 00:58:49;;;;;;;2.10;2.00;;;9.70;99.90;;;;;;10453895;28;20221;-79
2023/11/07 01:03:51;;;;;;;2.10;2.00;;;9.60;99.90;;;;;;10456754;28;20212;-78
2023/11/07 01:08:56;;;;;;;2.30;2.10;;;9.50;99.90;;;;;;10438806;28;20194;-79
2023/11/07 01:13:58;;;;;;;2.20;2.00;;;9.50;99.90;;;;;;10432282;28;20209;-79
2023/11/07 01:19:01;;;;;;;3.00;2.80;;;9.40;99.90;;;;;;10425890;28;20233;-78
2023/11/07 01:24:05;;;;;;;3.33;2.63;;;9.30;99.90;;;;;;10422831;28;20206;-79
2023/11/07 01:29:08;;;;;;;5.43;2.50;;;9.30;99.90;;;;;;10418332;28;20216;-79
2023/11/07 01:34:10;;;;;;;2.40;2.10;;;9.20;99.90;;;;;;10419813;28;20260;-79
2023/11/07 01:39:14;;;;;;;2.63;2.40;;;9.20;99.90;;;;;;10422794;28;20225;-78
2023/11/07 01:44:17;;;;;;;2.17;2.07;;;9.20;99.90;;;;;;10455792;28;20222;-79
2023/11/07 01:49:19;;;;;;;2.50;2.40;;;9.30;99.90;;;;;;10439192;28;20206;-79
2023/11/07 01:54:25;;;;;;;3.23;2.50;;;9.30;99.90;;;;;;10423654;28;20225;-79
2023/11/07 01:59:27;;;;;;;2.50;2.30;;;9.30;99.90;;;;;;10421309;28;20221;-79
2023/11/07 02:04:30;;;;;;;2.20;2.07;;;9.40;99.90;;;;;;10420226;28;20232;-79
2023/11/07 02:09:34;;;;;;;2.10;1.97;;;9.40;99.90;;;;;;10431014;28;20252;-79
2023/11/07 02:14:36;;;;;;;2.53;2.33;;;9.40;99.90;;;;;;10438757;28;20233;-78
2023/11/07 02:19:38;;;;;;;2.40;2.30;;;9.40;99.90;;;;;;10431734;28;20210;-79
2023/11/07 02:24:42;;;;;;;2.60;2.40;;;9.40;99.90;;;;;;10449162;28;20303;-79
2023/11/07 02:29:45;;;;;;;2.50;2.40;;;9.40;99.90;;;;;;10437991;28;20659;-78
2023/11/07 02:34:48;;;;;;;2.30;2.20;;;9.50;99.90;;;;;;10429303;28;20226;-79
2023/11/07 02:39:52;;;;;;;2.20;2.00;;;9.50;99.90;;;;;;10429313;28;20225;-79
2023/11/07 02:44:55;;;;;;;2.00;1.90;;;9.60;99.90;;;;;;10440580;28;20717;-79
2023/11/07 02:49:57;;;;;;;2.83;1.80;;;9.50;99.90;;;;;;10428424;28;20194;-79
2023/11/07 02:55:01;;;;;;;2.37;2.17;;;9.50;99.90;;;;;;10434164;28;20263;-79
2023/11/07 03:00:04;;;;;;;2.00;1.70;;;9.50;99.90;;;;;;10438473;28;20214;-79
2023/11/07 03:05:08;;;;;;;1.70;1.60;;;9.40;99.90;;;;;;10434799;28;20221;-79
2023/11/07 03:10:12;;;;;;;2.93;1.80;;;9.40;99.90;;;;;;10450610;28;20970;-79
2023/11/07 03:15:15;;;;;;;1.80;1.70;;;9.50;99.90;;;;;;10466510;28;20229;-78
2023/11/07 03:20:17;;;;;;;2.60;2.40;;;9.60;99.90;;;;;;10445965;28;20237;-79
2023/11/07 03:25:21;;;;;;;1.80;1.70;;;9.70;99.90;;;;;;10437409;28;20222;-79
2023/11/07 03:30:24;;;;;;;2.10;2.00;;;9.70;99.90;;;;;;10446415;28;20204;-79
2023/11/07 03:35:27;;;;;;;2.37;1.87;;;9.70;99.90;;;;;;10442334;28;20235;-78
2023/11/07 03:40:31;;;;;;;2.70;2.00;;;9.80;99.90;;;;;;10435558;28;20243;-79
2023/11/07 03:45:34;;;;;;;2.10;2.00;;;9.70;99.90;;;;;;10431903;28;20291;-79
2023/11/07 03:50:36;;;;;;;1.90;1.80;;;9.70;99.90;;;;;;10443519;28;20270;-78
2023/11/07 03:55:40;;;;;;;2.20;1.93;;;9.60;99.90;;;;;;10450192;28;20233;-78
2023/11/07 04:00:43;;;;;;;1.93;1.70;;;9.60;99.90;;;;;;10454386;28;20491;-79
2023/11/07 04:05:45;;;;;;;2.03;1.60;;;9.60;99.90;;;;;;10455210;28;20266;-78
2023/11/07 04:10:49;;;;;;;2.40;1.60;;;9.60;99.90;;;;;;10464468;28;20197;-78
2023/11/07 04:15:51;;;;;;;3.23;2.13;;;9.60;99.90;;;;;;10454772;28;20286;-79
2023/11/07 04:20:55;;;;;;;2.00;1.90;;;9.60;99.90;;;;;;10456032;28;20697;-78
2023/11/07 04:25:58;;;;;;;2.13;2.03;;;9.60;99.90;;;;;;10455090;28;20228;-79
2023/11/07 04:31:02;;;;;;;2.10;2.00;;;9.60;99.90;;;;;;10457045;28;20550;-79
2023/11/07 04:36:06;;;;;;;2.37;2.17;;;9.60;99.90;;;;;;10457986;28;20243;-79
2023/11/07 04:41:10;;;;;;;2.80;2.60;;;9.60;99.90;;;;;;10456754;28;20225;-78
2023/11/07 04:46:12;;;;;;;2.20;2.10;;;9.60;99.90;;;;;;10456113;28;20655;-77
2023/11/07 04:51:17;;;;;;;1.90;1.80;;;9.60;99.90;;;;;;10455986;28;20197;-79
2023/11/07 04:56:20;;;;;;;1.80;1.70;;;9.60;99.90;;;;;;10452306;28;20228;-79
2023/11/07 05:01:23;;;;;;;1.90;1.80;;;9.60;99.90;;;;;;10452886;28;20228;-79
2023/11/07 05:06:25;;;;;;;2.23;2.13;;;9.50;99.90;;;;;;10457070;28;20298;-79
2023/11/07 05:11:29;;;;;;;2.37;2.17;;;9.50;99.90;;;;;;10457581;28;20201;-79
2023/11/07 05:16:31;;;;;;;2.20;2.10;;;9.40;99.90;;;;;;10459040;28;20229;-78
2023/11/07 05:21:33;;;;;;;2.10;1.90;;;9.40;99.90;;;;;;10452984;28;20339;-79
2023/11/07 05:26:38;;;;;;;1.90;1.80;;;9.40;99.90;;;;;;10452895;28;21040;-78
2023/11/07 05:31:40;;;;;;;1.93;1.83;;;9.30;99.90;;;;;;10455968;28;20181;-79
2023/11/07 05:36:43;;;;;;;1.67;1.57;;;9.30;99.90;;;;;;10453012;28;20205;-79
2023/11/07 05:41:47;;;;;;;2.10;2.00;;;9.30;99.90;;;;;;10455577;28;20570;-79
2023/11/07 05:46:50;;;;;;;1.97;1.77;;;9.20;99.90;;;;;;10452615;28;20251;-79
2023/11/07 05:51:53;;;;;;;2.50;2.30;;;9.20;99.90;;;;;;10452476;28;20239;-78
2023/11/07 05:56:57;;;;;;;2.30;2.20;;;9.20;99.90;;;;;;10445884;28;20221;-77
2023/11/07 06:01:59;;;;;;;2.27;2.17;;;9.20;99.90;;;;;;10453625;28;20225;-79
2023/11/07 06:07:01;;;;;;;3.00;2.80;;;9.20;99.90;;;;;;10440911;28;20213;-78
2023/11/07 06:12:07;;;;;;;2.87;2.00;;;9.20;99.90;;;;;;10434054;28;20737;-78
2023/11/07 06:17:10;;;;;;;3.17;2.97;;;9.30;99.90;;;;;;10446004;28;20232;-78
2023/11/07 06:22:12;;;;;;;2.63;2.43;;;9.20;99.90;;;;;;10452228;28;20217;-78
2023/11/07 06:27:16;;;;;;;2.43;2.33;;;9.20;99.90;;;;;;10458842;28;21066;-78
2023/11/07 06:32:18;;;;;;;2.60;2.43;;;9.20;99.90;;;;;;10458818;28;20193;-78
2023/11/07 06:37:20;;;;;;;1.63;1.53;;;9.20;99.90;;;;;;10460069;28;20550;-77
2023/11/07 06:42:24;;;;;;;2.30;2.20;;;9.20;99.90;;;;;;10461849;28;20213;-78
2023/11/07 06:47:26;;;;;;;3.20;3.00;;;9.20;99.90;;;;;;10459286;28;20213;-78
2023/11/07 06:52:29;;;;;;;2.60;2.40;;;9.20;99.90;;;;;;10459855;28;20189;-78
2023/11/07 06:57:33;;;;;;;2.73;2.40;;;9.20;99.90;;;;;;10457174;28;20221;-78
2023/11/07 07:02:36;;;;;;;3.37;2.00;;;9.20;99.90;;;;;;10459671;28;20608;-78
2023/11/07 07:07:40;;;;;;;3.70;2.27;;;9.30;99.90;;;;;;10457959;28;20812;-77
2023/11/07 07:12:44;;;;;;;2.50;2.10;;;9.30;99.90;;;;;;10463559;28;20224;-78
2023/11/07 07:17:46;;;;;;;3.30;3.10;;;9.40;99.90;;;;;;10458362;28;20635;-78
2023/11/07 07:22:49;;;;;;;3.30;3.10;;;9.40;99.90;;;;;;10457164;28;20629;-78
2023/11/07 07:27:53;;;;;;;5.57;5.07;;;9.40;99.90;;;;;;10458306;28;20651;-78
2023/11/07 07:32:55;;;;;;;2.40;2.30;;;9.50;99.90;;;;;;10457867;28;20197;-78
2023/11/07 07:37:59;;;;;;;2.00;1.90;;;9.60;99.90;;;;;;10457783;28;20636;-78
2023/11/07 07:43:08;;;;;;;2.30;2.17;;;9.70;99.90;;;;;;10457699;28;20198;-78
2023/11/07 07:48:11;;;;;;;1.60;1.47;;;9.80;99.90;;;;;;10455022;28;20220;-78
2023/11/07 07:53:15;;;;;;;2.23;1.70;;;10.10;99.90;;;;;;10455108;28;20278;-79
2023/11/07 07:58:19;;;;;;;2.77;1.90;;;10.10;99.90;;;;;;10454448;28;20224;-79
2023/11/07 08:03:22;;;;;;;4.40;1.80;;;10.30;99.90;;;;;;10448733;28;20193;-78
2023/11/07 08:08:25;;;;;;;1.93;1.80;;;10.40;99.90;;;;;;10458250;28;20213;-79
2023/11/07 08:13:29;;;;;;;1.87;1.77;;;10.50;99.90;;;;;;10458306;28;20213;-79
2023/11/07 08:18:31;;;;;;;1.90;1.80;;;10.70;99.90;;;;;;10457985;28;20244;-79
2023/11/07 08:23:33;;;;;;;1.97;1.43;;;10.80;99.90;;;;;;10457635;28;20204;-79
2023/11/07 08:28:37;;;;;;;2.27;1.80;;;11.00;99.90;;;;;;10457481;28;20632;-79
2023/11/07 08:33:40;;;;;;;1.70;1.60;;;11.10;99.90;;;;;;10457167;28;20193;-79
2023/11/07 08:38:43;;;;;;;3.47;2.00;;;11.20;99.90;;;;;;10456571;28;20221;-79
2023/11/07 08:43:47;;;;;;;2.07;1.73;;;11.40;99.90;;;;;;10449429;28;20570;-79
2023/11/07 08:48:50;;;;;;;1.77;1.67;;;11.50;99.90;;;;;;10465339;28;20225;-79
2023/11/07 08:53:55;;;;;;;2.40;1.93;;;11.60;99.90;;;;;;10442494;28;20255;-79
2023/11/07 08:58:58;;;;;;;1.87;1.77;;;11.70;99.90;;;;;;10446900;28;20645;-79
2023/11/07 09:04:03;;;;;;;2.07;1.90;;;11.70;99.90;;;;;;10448627;28;20201;-79
2023/11/07 09:09:07;;;;;;;1.47;1.37;;;11.70;99.90;;;;;;10459921;28;20752;-79
2023/11/07 09:14:11;;;;;;;1.60;1.50;;;11.80;99.90;;;;;;10453556;28;20205;-79
2023/11/07 09:19:14;;;;;;;1.90;1.70;;;11.90;99.90;;;;;;10448689;28;20298;-78
2023/11/07 09:24:16;;;;;;;1.63;1.43;;;12.00;99.90;;;;;;10435754;28;20213;-79
2023/11/07 09:29:20;;;;;;;1.30;1.30;;;12.10;99.90;;;;;;10453568;28;20208;-79
2023/11/07 09:34:22;;;;;;;3.57;1.60;;;12.10;99.90;;;;;;10454383;28;20209;-79
2023/11/07 09:39:26;;;;;;;1.53;1.40;;;12.10;99.90;;;;;;10456190;28;20217;-79
2023/11/07 09:44:29;;;;;;;1.60;1.50;;;12.10;99.90;;;;;;10451201;28;20228;-80
2023/11/07 09:49:32;;;;;;;1.57;1.40;;;12.20;99.90;;;;;;10450482;28;20202;-79
2023/11/07 09:54:36;;;;;;;1.43;1.20;;;12.30;99.90;;;;;;10445783;28;20221;-79
2023/11/07 09:59:49;;;;;;;3.00;1.30;;;12.50;99.90;;;;;;10451763;28;20523;-79
2023/11/07 10:04:53;;;;;;;1.40;1.30;;;12.60;99.90;;;;;;10459211;28;20224;-79
2023/11/07 10:09:55;;;;;;;1.87;1.50;;;12.70;99.90;;;;;;10441954;28;20206;-79
2023/11/07 10:15:16;;;;;;;1.10;1.10;;;12.80;99.90;;;;;;10434154;28;20736;-79
2023/11/07 10:20:19;;;;;;;11.30;2.87;;;12.90;99.90;;;;;;10457411;28;20305;-79
2023/11/07 10:25:29;;;;;;;1.23;1.17;;;12.90;99.90;;;;;;10451761;28;20275;-80
2023/11/07 10:30:39;;;;;;;1.70;1.43;;;13.00;99.90;;;;;;10462114;28;20193;-80
2023/11/07 10:35:52;;;;;;;1.37;1.10;;;12.90;99.90;;;;;;10454201;28;20217;-79
2023/11/07 10:40:54;;;;;;;1.27;1.23;;;12.90;99.70;;;;;;10457101;28;20226;-79
2023/11/07 10:46:01;;;;;;;1.60;1.50;;;12.90;99.70;;;;;;10454018;28;20225;-79
2023/11/07 10:51:04;;;;;;;1.20;1.10;;;13.00;99.40;;;;;;10443750;28;20201;-79
2023/11/07 10:56:12;;;;;;;1.60;1.50;;;13.00;99.50;;;;;;10457469;28;20233;-79
2023/11/07 11:01:17;;;;;;;4.40;1.40;;;13.10;99.60;;;;;;10463293;28;20720;-79
2023/11/07 11:06:40;;;;;;;1.10;1.10;;;13.20;99.20;;;;;;10457686;28;20260;-80
2023/11/07 11:12:03;;;;;;;1.10;1.10;;;13.30;99.30;;;;;;10440473;28;20190;-79
2023/11/07 11:17:37;;;;;;;1.43;1.33;;;13.20;99.60;;;;;;10440382;28;20235;-77
2023/11/07 11:22:46;;;;;;;1.17;1.17;;;13.00;99.90;;;;;;10424021;28;20221;-80
2023/11/07 11:27:55;;;;;;;1.50;1.40;;;12.90;99.90;;;;;;10450990;28;20573;-79
2023/11/07 11:33:09;;;;;;;1.30;1.30;;;12.70;99.90;;;;;;10458520;28;20456;-79
2023/11/07 11:38:13;;;;;;;1.77;1.67;;;12.70;99.90;;;;;;10443085;28;20244;-79
2023/11/07 11:43:16;;;;;;;1.83;1.50;;;12.60;99.90;;;;;;10461199;28;20217;-79
2023/11/07 11:48:40;;;;;;;1.20;1.20;;;12.70;99.90;;;;;;10449658;28;20244;-79
2023/11/07 11:53:49;;;;;;;1.60;1.50;;;12.70;99.90;;;;;;10456303;28;20608;-78
2023/11/07 11:59:09;;;;;;;1.40;1.30;;;12.70;99.90;;;;;;10454624;28;20262;-79
2023/11/07 12:04:26;;;;;;;3.90;1.60;;;12.80;99.90;;;;;;10453770;28;20207;-79
2023/11/07 12:09:34;;;;;;;1.53;1.43;;;12.90;99.90;;;;;;10449506;28;20193;-79
2023/11/07 12:14:49;;;;;;;1.57;1.40;;;13.00;99.90;;;;;;10444868;28;20294;-79
2023/11/07 12:20:02;;;;;;;1.60;1.50;;;13.10;99.90;;;;;;10456115;28;20220;-78
2023/11/07 12:25:12;;;;;;;1.37;1.27;;;13.10;99.90;;;;;;10449483;28;20256;-79
2023/11/07 12:30:16;;;;;;;1.50;1.40;;;13.10;99.90;;;;;;10431554;28;20311;-79
2023/11/07 12:35:20;;;;;;;1.17;1.17;;;13.10;99.90;;;;;;10440277;28;20241;-79
2023/11/07 12:40:25;;;;;;;5.33;1.20;;;13.20;99.90;;;;;;10430553;28;20217;-79
2023/11/07 12:45:28;;;;;;;2.10;1.30;;;13.40;99.90;;;;;;10449006;28;20222;-79
2023/11/07 12:50:33;;;;;;;1.60;1.50;;;13.40;99.90;;;;;;10442277;28;20204;-79
2023/11/07 12:55:37;;;;;;;1.30;1.30;;;13.40;99.90;;;;;;10420731;28;20213;-79
2023/11/07 13:00:56;;;;;;;1.27;1.00;;;13.40;99.90;;;;;;10435126;28;20231;-79
2023/11/07 13:06:00;;;;;;;1.17;0.93;;;13.30;99.90;;;;;;10440656;28;20427;-79
2023/11/07 13:11:12;;;;;;;1.43;1.30;;;13.10;99.90;;;;;;10444992;28;20623;-79
2023/11/07 13:16:16;;;;;;;1.17;1.13;;;13.00;99.90;;;;;;10434314;28;20239;-80
2023/11/07 13:21:19;;;;;;;1.13;1.03;;;12.90;99.90;;;;;;10444109;28;20247;-79
2023/11/07 13:26:23;;;;;;;1.20;1.20;;;12.90;99.90;;;;;;10444622;28;20255;-79
2023/11/07 13:31:25;;;;;;;1.40;1.30;;;12.90;99.90;;;;;;10444016;28;20197;-79
2023/11/07 13:36:28;;;;;;;1.30;1.20;;;13.00;99.90;;;;;;10448322;28;20697;-79
2023/11/07 13:41:32;;;;;;;1.30;1.20;;;13.00;99.90;;;;;;10447103;28;20265;-78
2023/11/07 13:46:34;;;;;;;1.17;1.10;;;13.00;99.90;;;;;;10447104;28;20213;-79
2023/11/07 13:51:38;;;;;;;1.20;1.10;;;12.90;99.90;;;;;;10455272;28;20570;-78
2023/11/07 13:56:42;;;;;;;1.20;1.10;;;12.90;99.90;;;;;;10452034;28;20803;-79
2023/11/07 14:01:44;;;;;;;1.00;1.00;;;12.90;99.90;;;;;;10448663;28;20236;-79
2023/11/07 14:06:47;;;;;;;1.13;1.13;;;12.90;99.90;;;;;;10452892;28;20226;-77
2023/11/07 14:11:51;;;;;;;1.37;1.20;;;12.80;99.90;;;;;;10433393;28;20701;-79
2023/11/07 14:16:54;;;;;;;1.73;1.30;;;12.80;99.90;;;;;;10447028;28;20622;-79
2023/11/07 14:21:56;;;;;;;1.23;1.23;;;12.70;99.90;;;;;;10455636;28;20241;-78
2023/11/07 14:27:00;;;;;;;1.30;1.20;;;12.70;99.90;;;;;;10454299;28;20756;-78
2023/11/07 14:32:02;;;;;;;1.40;1.40;;;12.60;99.90;;;;;;10457383;28;20252;-78
2023/11/07 14:37:05;;;;;;;1.33;1.23;;;12.60;99.90;;;;;;10439362;28;20217;-79
2023/11/07 14:42:08;;;;;;;1.17;1.07;;;12.60;99.90;;;;;;10454801;28;20283;-79
2023/11/07 14:47:11;;;;;;;1.40;1.30;;;12.60;99.90;;;;;;10455374;28;20220;-78
2023/11/07 14:52:14;;;;;;;1.33;1.23;;;12.60;99.90;;;;;;10456778;28;20263;-78
2023/11/07 14:57:18;;;;;;;1.00;1.00;;;12.50;99.90;;;;;;10462279;28;20214;-78
2023/11/07 15:02:21;;;;;;;1.13;1.13;;;12.40;99.90;;;;;;10464370;28;20228;-78
2023/11/07 15:07:23;;;;;;;1.27;1.23;;;12.40;99.90;;;;;;10458713;28;20236;-78
2023/11/07 15:12:27;;;;;;;1.30;1.20;;;12.30;99.90;;;;;;10452935;28;20267;-79
2023/11/07 15:17:30;;;;;;;1.40;1.30;;;12.20;99.90;;;;;;10450867;28;20295;-78
2023/11/07 15:22:32;;;;;;;1.43;1.33;;;12.20;99.90;;;;;;10457131;28;20228;-78
2023/11/07 15:27:37;;;;;;;1.93;1.07;;;12.10;99.90;;;;;;10455436;28;20287;-77
2023/11/07 15:32:40;;;;;;;2.10;1.20;;;12.00;99.90;;;;;;10454793;28;20193;-79
2023/11/07 15:37:43;;;;;;;1.40;1.40;;;11.90;99.90;;;;;;10455684;28;20225;-77
2023/11/07 15:42:47;;;;;;;5.20;1.30;;;11.90;99.90;;;;;;10452407;28;20225;-78
2023/11/07 15:47:49;;;;;;;2.00;1.90;;;11.80;99.90;;;;;;10438584;28;20214;-77
2023/11/07 15:52:52;;;;;;;1.30;1.20;;;11.70;99.90;;;;;;10431341;28;20663;-79
2023/11/07 15:57:56;;;;;;;2.03;1.93;;;11.70;99.90;;;;;;10451065;28;20217;-78
2023/11/07 16:02:58;;;;;;;1.63;1.53;;;11.60;99.90;;;;;;10448808;28;20252;-79
2023/11/07 16:08:00;;;;;;;1.73;1.37;;;11.60;99.90;;;;;;10444316;28;20224;-79
2023/11/07 16:13:04;;;;;;;1.87;1.77;;;11.70;99.90;;;;;;10449296;28;20599;-79
2023/11/07 16:18:07;;;;;;;1.60;1.43;;;11.70;99.90;;;;;;10449467;28;20236;-79
2023/11/07 16:23:09;;;;;;;1.40;1.40;;;11.60;99.90;;;;;;10438462;28;20227;-78
2023/11/07 16:28:13;;;;;;;2.03;1.93;;;11.60;99.90;;;;;;10436973;28;20224;-79
2023/11/07 16:33:16;;;;;;;1.90;1.80;;;11.50;99.90;;;;;;10443287;28;20544;-79
2023/11/07 16:38:18;;;;;;;1.80;1.70;;;11.50;99.90;;;;;;10441308;28;20682;-79
2023/11/07 16:43:22;;;;;;;2.00;1.90;;;11.40;99.90;;;;;;10447584;28;20218;-78
2023/11/07 16:48:25;;;;;;;1.90;1.80;;;11.40;99.90;;;;;;10443361;28;20221;-78
2023/11/07 16:53:28;;;;;;;2.60;2.40;;;11.30;99.90;;;;;;10452078;28;20208;-78
2023/11/07 16:58:31;;;;;;;2.50;2.40;;;11.30;99.90;;;;;;10444879;28;20225;-76
2023/11/07 17:03:34;;;;;;;1.80;1.70;;;11.20;99.90;;;;;;10456660;28;20217;-79
2023/11/07 17:08:36;;;;;;;1.47;1.37;;;11.20;99.90;;;;;;10445854;28;20224;-79
2023/11/07 17:13:40;;;;;;;1.80;1.70;;;11.20;99.90;;;;;;10442964;28;20218;-79
2023/11/07 17:18:42;;;;;;;2.23;2.13;;;11.10;99.90;;;;;;10452971;28;20228;-79
2023/11/07 17:23:47;;;;;;;1.80;1.70;;;11.00;99.90;;;;;;10453053;28;20221;-77
2023/11/07 17:28:50;;;;;;;2.60;2.40;;;10.90;99.90;;;;;;10444367;28;20713;-78
2023/11/07 17:33:54;;;;;;;2.27;2.17;;;10.90;99.90;;;;;;10445435;28;20201;-77
2023/11/07 17:38:56;;;;;;;2.17;2.03;;;10.80;99.90;;;;;;10449913;28;20315;-78
2023/11/07 17:44:00;;;;;;;2.40;2.20;;;10.80;99.90;;;;;;10442962;28;20765;-79
2023/11/07 17:49:03;;;;;;;1.83;1.53;;;10.80;99.90;;;;;;10450429;28;20194;-79
2023/11/07 17:54:07;;;;;;;1.40;1.40;;;10.70;99.90;;;;;;10445214;28;20194;-78
2023/11/07 17:59:12;;;;;;;2.23;1.80;;;10.70;99.90;;;;;;10440469;28;20636;-78
2023/11/07 18:04:14;;;;;;;2.50;2.20;;;10.70;99.90;;;;;;10451106;28;20237;-78
2023/11/07 18:09:18;;;;;;;1.97;1.87;;;10.60;99.90;;;;;;10452193;28;20703;-78
2023/11/07 18:14:27;;;;;;;2.80;2.20;;;10.60;99.90;;;;;;10443852;28;20284;-78
2023/11/07 18:19:31;;;;;;;2.10;2.00;;;10.60;99.90;;;;;;10454462;28;20614;-77
2023/11/07 18:24:33;;;;;;;2.83;2.20;;;10.60;99.90;;;;;;10457397;28;20221;-78
2023/11/07 18:29:37;;;;;;;2.63;2.43;;;10.60;99.90;;;;;;10452865;28;20201;-79
2023/11/07 18:34:40;;;;;;;3.10;2.00;;;10.70;99.90;;;;;;10456015;28;20232;-79
2023/11/07 18:39:42;;;;;;;2.50;2.30;;;10.60;99.90;;;;;;10444514;28;20209;-79
2023/11/07 18:44:46;;;;;;;2.63;2.30;;;10.60;99.90;;;;;;10445645;28;20235;-77
2023/11/07 18:49:49;;;;;;;2.40;2.20;;;10.60;99.90;;;;;;10449621;28;20209;-78
2023/11/07 18:54:51;;;;;;;1.77;1.67;;;10.60;99.90;;;;;;10453681;28;20217;-78
2023/11/07 18:59:55;;;;;;;2.77;2.20;;;10.60;99.90;;;;;;10461431;28;20243;-76
2023/11/07 19:04:58;;;;;;;4.13;1.80;;;10.60;99.90;;;;;;10452723;28;20267;-77
2023/11/07 19:10:02;;;;;;;2.50;2.30;;;10.50;99.90;;;;;;10442606;28;20733;-78
2023/11/07 19:15:07;;;;;;;9.17;2.10;;;10.50;99.90;;;;;;10449926;28;20224;-78
2023/11/07 19:20:11;;;;;;;2.43;2.27;;;10.40;99.90;;;;;;10445857;28;20209;-77
2023/11/07 19:25:13;;;;;;;3.97;2.80;;;10.40;99.90;;;;;;10444143;28;20255;-78
2023/11/07 19:30:17;;;;;;;3.60;2.80;;;10.40;99.90;;;;;;10439333;28;20955;-78
2023/11/07 19:35:20;;;;;;;2.30;2.20;;;10.40;99.90;;;;;;10433266;28;20218;-77
2023/11/07 19:40:23;;;;;;;5.37;2.00;;;10.30;99.90;;;;;;10444715;28;20270;-76
2023/11/07 19:45:27;;;;;;;2.40;2.20;;;10.30;99.90;;;;;;10448723;28;20221;-77
2023/11/07 19:50:34;;;;;;;2.70;2.50;;;10.20;99.90;;;;;;10430135;28;20212;-76
2023/11/07 19:55:36;;;;;;;3.33;2.67;;;10.30;99.90;;;;;;10421700;28;20263;-76
2023/11/07 20:00:40;;;;;;;2.73;2.53;;;10.20;99.90;;;;;;10445542;28;20274;-78
2023/11/07 20:05:44;;;;;;;2.80;2.40;;;10.10;99.90;;;;;;10428909;28;20280;-77
2023/11/07 20:10:47;;;;;;;4.17;2.70;;;10.10;99.90;;;;;;10432128;28;20227;-77
2023/11/07 20:15:52;;;;;;;2.37;2.17;;;10.10;99.90;;;;;;10449893;28;20229;-78
2023/11/07 20:20:55;;;;;;;3.27;2.37;;;10.00;99.90;;;;;;10447357;28;20214;-77
2023/11/07 20:25:57;;;;;;;2.70;2.50;;;10.00;99.90;;;;;;10442858;28;20230;-77
2023/11/07 20:31:02;;;;;;;3.07;2.10;;;10.00;99.90;;;;;;10415189;28;20198;-77
2023/11/07 20:36:05;;;;;;;2.27;2.10;;;10.00;99.90;;;;;;10435991;28;20718;-77
2023/11/07 20:41:07;;;;;;;2.33;1.97;;;10.00;99.90;;;;;;10443422;28;20198;-77
2023/11/07 20:46:17;;;;;;;4.03;2.30;;;10.00;99.90;;;;;;10441539;28;20229;-78
2023/11/07 20:51:20;;;;;;;2.43;1.87;;;9.90;99.90;;;;;;10428108;28;20206;-77
2023/11/07 20:56:27;;;;;;;1.90;1.70;;;10.00;99.90;;;;;;10430551;28;20225;-77
2023/11/07 21:01:31;;;;;;;2.10;1.87;;;10.00;99.90;;;;;;10443252;28;20575;-77
2023/11/07 21:06:34;;;;;;;2.43;2.23;;;10.00;99.90;;;;;;10436311;28;20234;-78
2023/11/07 21:11:36;;;;;;;6.93;2.67;;;9.90;99.90;;;;;;10439506;28;20252;-76
2023/11/07 21:16:41;;;;;;;2.90;2.60;;;9.90;99.90;;;;;;10446125;28;20237;-77
2023/11/07 21:21:43;;;;;;;2.70;2.27;;;9.90;99.90;;;;;;10431530;28;20213;-76
2023/11/07 21:26:46;;;;;;;2.10;2.00;;;9.90;99.90;;;;;;10431880;28;20233;-77
2023/11/07 21:31:51;;;;;;;3.07;2.77;;;9.90;99.90;;;;;;10446410;28;20251;-78
2023/11/07 21:36:54;;;;;;;2.50;2.30;;;9.80;99.90;;;;;;10444664;28;20232;-78
2023/11/07 21:41:57;;;;;;;3.33;2.53;;;9.80;99.90;;;;;;10446261;28;20290;-78
2023/11/07 21:47:02;;;;;;;3.20;2.90;;;9.70;99.90;;;;;;10431883;28;20228;-77
2023/11/07 21:52:04;;;;;;;3.07;2.70;;;9.70;99.90;;;;;;10430297;28;20206;-78
2023/11/07 21:57:07;;;;;;;3.43;2.60;;;9.70;99.90;;;;;;10450875;28;20229;-77
2023/11/07 22:02:11;;;;;;;2.43;2.23;;;9.60;99.90;;;;;;10438135;28;20217;-78
2023/11/07 22:07:13;;;;;;;3.07;2.87;;;9.50;99.90;;;;;;10435585;28;20217;-78
2023/11/07 22:12:15;;;;;;;2.80;2.60;;;9.40;99.90;;;;;;10452142;28;21418;-78
2023/11/07 22:17:19;;;;;;;2.30;2.10;;;9.40;99.90;;;;;;10449434;28;20230;-78
2023/11/07 22:22:21;;;;;;;3.30;2.20;;;9.40;99.90;;;;;;10450209;28;20206;-78
2023/11/07 22:27:24;;;;;;;2.50;2.30;;;9.30;99.90;;;;;;10454979;28;20214;-78
2023/11/07 22:32:27;;;;;;;2.53;2.33;;;9.20;99.90;;;;;;10457869;28;20619;-78
2023/11/07 22:37:30;;;;;;;2.20;1.83;;;9.20;99.90;;;;;;10436307;28;20221;-77
2023/11/07 22:42:33;;;;;;;2.77;2.57;;;9.30;99.90;;;;;;10454456;28;20271;-77
2023/11/07 22:47:37;;;;;;;2.47;2.33;;;9.20;99.90;;;;;;10454042;28;20639;-78
2023/11/07 22:52:40;;;;;;;4.53;1.97;;;9.20;99.90;;;;;;10456287;28;20223;-77
2023/11/07 22:57:43;;;;;;;2.10;2.00;;;9.20;99.90;;;;;;10432319;28;20216;-78
2023/11/07 23:02:47;;;;;;;2.13;1.93;;;9.30;99.90;;;;;;10450108;28;20298;-78
2023/11/07 23:07:50;;;;;;;2.67;2.47;;;9.20;99.90;;;;;;10456370;28;20702;-78
2023/11/07 23:12:53;;;;;;;2.33;2.10;;;9.20;99.90;;;;;;10457188;28;20259;-78
2023/11/07 23:17:57;;;;;;;2.73;2.47;;;9.30;99.90;;;;;;10452590;28;20229;-78
2023/11/07 23:22:59;;;;;;;3.60;2.40;;;9.30;99.90;;;;;;10447086;28;20283;-78
2023/11/07 23:28:01;;;;;;;3.13;2.30;;;9.30;99.90;;;;;;10448417;28;20702;-78
2023/11/07 23:33:06;;;;;;;1.97;1.87;;;9.20;99.90;;;;;;10443729;28;20201;-77
2023/11/07 23:38:09;;;;;;;2.13;1.90;;;9.20;99.90;;;;;;10442811;28;20414;-77
2023/11/07 23:43:13;;;;;;;3.73;1.87;;;9.20;99.90;;;;;;10442603;28;20225;-77
2023/11/07 23:48:16;;;;;;;3.07;2.40;;;9.30;99.90;;;;;;10443741;28;20213;-75
2023/11/07 23:53:20;;;;;;;2.50;2.00;;;9.30;99.90;;;;;;10445716;28;20186;-78
2023/11/07 23:58:22;;;;;;;2.17;1.87;;;9.30;99.90;;;;;;10445986;28;20546;-77
